Time;durP1;ratioP1;P1;durP2;ratioP2;P2;SDS_P1;SDS_P2;PMS_P1;PMS_P2;Temp;Humidity;BMP_temperature;BMP_pressure;BME280_temperature;BME280_humidity;BME280_pressure;Samples;Min_cycle;Max_cycle;Signal;HPM_P1;HPM_P2
2024/01/15 00:04:12;;;;;;;7.78;3.80;;;;;;;19.57;29.85;100458.31;16113332;19;129912;-68
2024/01/15 00:09:35;;;;;;;7.18;4.20;;;;;;;19.52;29.78;100449.97;16114658;19;130771;-67
2024/01/15 00:14:57;;;;;;;6.97;4.22;;;;;;;19.48;29.81;100448.81;16115612;19;130007;-68
2024/01/15 00:20:19;;;;;;;5.95;3.47;;;;;;;19.45;30.09;100446.53;16114453;19;129459;-67
2024/01/15 00:25:41;;;;;;;6.93;3.67;;;;;;;19.40;29.67;100433.47;16115823;19;132148;-70
2024/01/15 00:31:04;;;;;;;5.13;3.58;;;;;;;19.34;29.97;100431.75;16111536;19;129768;-67
2024/01/15 00:36:27;;;;;;;9.35;3.75;;;;;;;19.30;29.53;100430.59;16113583;19;129457;-66
2024/01/15 00:41:49;;;;;;;7.47;3.90;;;;;;;19.23;29.61;100419.72;16116391;19;131123;-66
2024/01/15 00:47:10;;;;;;;9.05;3.65;;;;;;;19.17;29.90;100409.66;16117669;19;129802;-66
2024/01/15 00:52:32;;;;;;;4.60;3.10;;;;;;;19.11;29.94;100410.69;16117384;19;130813;-67
2024/01/15 00:57:54;;;;;;;4.82;3.15;;;;;;;19.06;30.32;100398.47;16119599;19;129657;-66
2024/01/15 01:03:16;;;;;;;4.55;3.13;;;;;;;19.03;29.91;100395.38;16122493;19;129560;-69
2024/01/15 01:08:39;;;;;;;4.97;3.50;;;;;;;19.02;30.24;100391.78;16136742;19;129499;-67
2024/01/15 01:14:01;;;;;;;4.35;3.03;;;;;;;18.98;29.86;100389.78;16135422;19;131302;-65
2024/01/15 01:19:25;;;;;;;5.00;3.10;;;;;;;18.96;29.78;100398.34;16136627;19;129900;-66
2024/01/15 01:24:47;;;;;;;5.30;2.83;;;;;;;18.94;29.99;100397.81;16132472;19;128876;-66
2024/01/15 01:30:09;;;;;;;4.50;2.90;;;;;;;18.91;30.26;100395.56;16131921;19;130473;-64
2024/01/15 01:35:31;;;;;;;6.55;2.55;;;;;;;18.90;30.12;100386.38;16131695;19;129401;-65
2024/01/15 01:40:53;;;;;;;5.05;2.95;;;;;;;18.88;30.26;100384.97;16132704;19;129461;-66
2024/01/15 01:46:16;;;;;;;4.65;2.88;;;;;;;18.86;29.95;100387.16;16132387;19;129612;-65
2024/01/15 01:51:39;;;;;;;3.15;2.28;;;;;;;18.82;30.00;100384.09;16127509;19;131473;-65
2024/01/15 01:57:03;;;;;;;5.45;2.25;;;;;;;18.81;30.12;100378.81;16133441;19;129478;-67
2024/01/15 02:02:26;;;;;;;4.30;2.33;;;;;;;18.77;30.20;100379.34;16130650;19;129564;-64
2024/01/15 02:07:48;;;;;;;3.80;2.38;;;;;;;18.75;30.07;100395.38;16124518;19;132084;-66
2024/01/15 02:13:10;;;;;;;3.97;2.40;;;;;;;18.72;30.08;100409.75;16121164;19;129372;-64
2024/01/15 02:18:45;;;;;;;3.40;2.05;;;;;;;18.71;30.40;100396.97;16119801;19;130282;-65
2024/01/15 02:24:07;;;;;;;3.35;2.20;;;;;;;18.65;30.29;100383.34;16124647;19;130306;-65
2024/01/15 02:29:29;;;;;;;2.80;2.00;;;;;;;18.63;30.63;100368.94;16119341;19;129727;-66
2024/01/15 02:34:51;;;;;;;2.60;1.80;;;;;;;18.61;30.40;100369.16;16120044;19;129427;-66
2024/01/15 02:40:13;;;;;;;3.70;1.67;;;;;;;18.57;30.76;100370.81;16121717;19;129578;-66
2024/01/15 02:45:35;;;;;;;2.00;1.67;;;;;;;18.54;30.52;100374.09;16120158;19;130087;-66
2024/01/15 02:50:57;;;;;;;2.13;1.55;;;;;;;18.52;30.73;100376.28;16118800;19;129808;-64
2024/01/15 02:56:19;;;;;;;2.17;1.60;;;;;;;18.51;30.38;100371.81;16117286;19;129397;-65
2024/01/15 03:01:41;;;;;;;2.22;1.40;;;;;;;18.49;30.84;100369.31;16119441;19;129495;-65
2024/01/15 03:07:03;;;;;;;1.95;1.60;;;;;;;18.48;30.50;100366.78;16110541;19;132364;-65
2024/01/15 03:12:25;;;;;;;1.48;1.20;;;;;;;18.46;30.70;100364.28;16112366;19;130561;-65
2024/01/15 03:17:47;;;;;;;2.08;1.25;;;;;;;18.43;30.51;100356.50;16113589;19;136386;-66
2024/01/15 03:23:09;;;;;;;3.75;1.30;;;;;;;18.42;30.43;100361.22;16109820;19;130102;-66
2024/01/15 03:28:31;;;;;;;2.03;1.35;;;;;;;18.41;30.60;100359.53;16117918;19;130118;-65
2024/01/15 03:33:53;;;;;;;2.00;1.17;;;;;;;18.37;30.45;100352.81;16118594;19;129609;-65
2024/01/15 03:39:16;;;;;;;1.50;1.23;;;;;;;18.34;30.41;100341.41;16113344;19;130953;-66
2024/01/15 03:44:38;;;;;;;3.22;1.10;;;;;;;18.32;30.57;100338.91;16116627;19;131356;-66
2024/01/15 03:50:00;;;;;;;1.95;1.10;;;;;;;18.31;30.44;100321.44;16118718;19;129353;-67
2024/01/15 03:55:22;;;;;;;1.83;1.48;;;;;;;18.29;30.61;100304.25;16117380;19;129527;-65
2024/01/15 04:00:43;;;;;;;1.38;0.90;;;;;;;18.28;30.45;100298.97;16120269;19;129919;-66
2024/01/15 04:06:06;;;;;;;3.47;1.10;;;;;;;18.27;30.87;100297.31;16113127;19;131613;-65
2024/01/15 04:11:28;;;;;;;1.60;0.75;;;;;;;18.23;30.47;100296.13;16110792;19;131978;-65
2024/01/15 04:16:50;;;;;;;1.85;1.00;;;;;;;18.22;30.94;100297.22;16111444;19;132029;-65
2024/01/15 04:22:12;;;;;;;3.20;1.20;;;;;;;18.19;30.92;100289.47;16110982;19;132423;-65
2024/01/15 04:27:34;;;;;;;1.05;0.80;;;;;;;18.18;30.84;100282.25;16106642;19;129528;-66
2024/01/15 04:32:56;;;;;;;1.27;0.93;;;;;;;18.18;30.52;100291.38;16110572;19;131137;-66
2024/01/15 04:38:18;;;;;;;1.98;0.85;;;;;;;18.15;30.91;100280.84;16121629;19;129802;-65
2024/01/15 04:43:40;;;;;;;1.60;1.08;;;;;;;18.13;30.97;100288.56;16125950;19;130011;-67
2024/01/15 04:49:02;;;;;;;1.10;1.00;;;;;;;18.12;30.70;100276.66;16128880;19;130819;-65
2024/01/15 04:54:24;;;;;;;0.82;0.70;;;;;;;18.11;30.90;100286.03;16128623;19;131106;-66
2024/01/15 04:59:46;;;;;;;0.90;0.80;;;;;;;18.09;30.55;100268.84;16128557;19;129406;-64
2024/01/15 05:05:08;;;;;;;1.15;0.73;;;;;;;18.09;30.57;100268.84;16125017;19;129670;-65
2024/01/15 05:10:30;;;;;;;0.77;0.65;;;;;;;18.07;30.54;100264.69;16123542;19;130450;-65
2024/01/15 05:15:52;;;;;;;2.60;1.05;;;;;;;18.05;30.51;100267.72;16125666;19;131195;-65
2024/01/15 05:21:14;;;;;;;3.08;0.90;;;;;;;18.04;30.87;100265.19;16123385;19;129418;-65
2024/01/15 05:26:37;;;;;;;0.90;0.70;;;;;;;18.03;30.80;100269.06;16127236;19;129932;-65
2024/01/15 05:31:59;;;;;;;1.13;0.70;;;;;;;18.01;30.78;100266.53;16126382;19;129858;-66
2024/01/15 05:37:23;;;;;;;1.05;0.63;;;;;;;17.98;30.90;100256.84;16123759;19;130917;-65
2024/01/15 05:42:45;;;;;;;0.73;0.57;;;;;;;17.98;30.70;100250.44;16124504;19;129189;-65
2024/01/15 05:48:07;;;;;;;1.85;0.80;;;;;;;17.96;30.78;100247.13;16124512;19;129426;-65
2024/01/15 05:53:29;;;;;;;1.30;0.80;;;;;;;17.95;30.70;100251.81;16121747;19;131659;-66
2024/01/15 05:58:51;;;;;;;0.70;0.63;;;;;;;17.94;30.70;100241.00;16125131;19;129536;-65
2024/01/15 06:04:13;;;;;;;1.20;0.60;;;;;;;17.94;30.74;100246.53;16123262;19;130074;-66
2024/01/15 06:09:36;;;;;;;0.98;0.50;;;;;;;17.90;30.81;100242.63;16121432;19;131022;-65
2024/01/15 06:14:58;;;;;;;1.48;0.77;;;;;;;17.91;30.58;100247.88;16123793;19;129994;-65
2024/01/15 06:20:19;;;;;;;2.53;0.70;;;;;;;17.89;30.90;100241.78;16125751;19;131351;-65
2024/01/15 06:25:41;;;;;;;1.00;0.55;;;;;;;17.89;30.92;100240.94;16125888;19;129678;-66
2024/01/15 06:31:04;;;;;;;1.85;0.75;;;;;;;17.88;30.55;100240.13;16120627;19;129890;-64
2024/01/15 06:36:26;;;;;;;1.40;0.60;;;;;;;17.88;30.51;100237.34;16116696;19;130549;-65
2024/01/15 06:41:48;;;;;;;1.45;0.80;;;;;;;17.88;31.04;100255.88;16119403;19;130316;-65
2024/01/15 06:47:10;;;;;;;0.80;0.50;;;;;;;17.88;30.90;100250.34;16114097;19;129332;-65
2024/01/15 06:52:31;;;;;;;1.95;0.60;;;;;;;17.88;31.07;100256.72;16113244;19;130591;-65
2024/01/15 06:57:53;;;;;;;3.53;0.80;;;;;;;17.88;30.74;100266.94;16114979;19;130774;-65
2024/01/15 07:03:15;;;;;;;1.50;0.70;;;;;;;17.89;30.69;100277.75;16115668;19;130667;-64
2024/01/15 07:08:40;;;;;;;1.42;0.60;;;;;;;17.88;30.69;100287.16;16112869;19;131681;-64
2024/01/15 07:14:02;;;;;;;1.27;0.50;;;;;;;17.85;30.67;100274.66;16109673;19;129950;-65
2024/01/15 07:19:24;;;;;;;1.75;0.95;;;;;;;17.84;30.99;100284.06;16107587;19;129854;-64
2024/01/15 07:24:58;;;;;;;1.45;0.65;;;;;;;17.84;30.81;100267.47;16185021;19;129355;-64
2024/01/15 07:30:21;;;;;;;3.65;0.88;;;;;;;17.86;30.62;100264.44;16187946;19;129628;-63
2024/01/15 07:35:43;;;;;;;3.83;0.60;;;;;;;17.84;30.73;100255.56;16183927;19;129898;-64
2024/01/15 07:41:05;;;;;;;1.92;0.70;;;;;;;17.83;30.95;100271.34;16189810;19;132616;-65
2024/01/15 07:46:27;;;;;;;3.55;0.73;;;;;;;17.83;30.98;100271.34;16191221;19;135937;-64
2024/01/15 07:51:49;;;;;;;2.00;0.60;;;;;;;17.80;30.97;100271.84;16189247;19;129800;-64
2024/01/15 07:57:11;;;;;;;2.65;0.65;;;;;;;17.79;30.67;100275.69;16191237;19;129565;-63
2024/01/15 08:02:33;;;;;;;1.10;0.50;;;;;;;17.78;31.06;100268.47;16183232;19;130314;-64
2024/01/15 08:07:58;;;;;;;1.33;0.57;;;;;;;17.78;31.05;100278.72;16186138;19;131047;-65
2024/01/15 08:13:20;;;;;;;1.40;0.50;;;;;;;17.76;31.22;100272.59;16184934;19;132058;-64
2024/01/15 08:18:44;;;;;;;1.15;0.52;;;;;;;17.74;31.28;100272.84;16190654;19;134421;-64
2024/01/15 08:24:06;;;;;;;1.17;0.43;;;;;;;17.71;31.01;100265.09;16184775;19;130484;-65
2024/01/15 08:29:28;;;;;;;2.05;0.60;;;;;;;17.70;30.87;100268.94;16185314;19;129361;-64
2024/01/15 08:34:52;;;;;;;1.42;0.60;;;;;;;17.69;31.24;100276.38;16140175;19;129476;-63
2024/01/15 08:40:14;;;;;;;1.40;0.63;;;;;;;17.66;31.34;100281.59;16121256;19;131002;-64
2024/01/15 08:45:36;;;;;;;2.67;0.45;;;;;;;17.63;31.06;100285.72;16123972;19;129706;-63
2024/01/15 08:50:58;;;;;;;2.38;0.40;;;;;;;17.62;31.28;100272.97;16121493;19;129580;-64
2024/01/15 08:56:20;;;;;;;0.73;0.40;;;;;;;17.60;31.16;100277.91;16121447;19;129621;-64
2024/01/15 09:01:42;;;;;;;1.85;0.80;;;;;;;17.58;31.06;100274.56;16121802;19;130616;-64
2024/01/15 09:07:04;;;;;;;1.58;0.60;;;;;;;17.57;31.06;100283.13;16118675;19;131711;-65
2024/01/15 09:12:26;;;;;;;1.20;0.57;;;;;;;17.57;31.40;100291.44;16116812;19;129894;-64
2024/01/15 09:17:48;;;;;;;0.90;0.50;;;;;;;17.54;31.43;100284.44;16118253;19;130960;-64
2024/01/15 09:23:10;;;;;;;1.58;0.50;;;;;;;17.52;31.03;100279.16;16117658;19;129726;-64
2024/01/15 09:28:32;;;;;;;2.28;0.55;;;;;;;17.51;31.08;100287.72;16118807;19;129561;-65
2024/01/15 09:33:59;;;;;;;1.48;0.60;;;;;;;17.49;31.29;100304.56;16124210;19;129282;-64
2024/01/15 09:39:23;;;;;;;1.02;0.50;;;;;;;17.49;31.53;100298.19;16120114;19;131664;-64
2024/01/15 09:44:46;;;;;;;2.05;0.47;;;;;;;17.49;31.43;100303.72;16116114;19;131924;-64
2024/01/15 09:50:08;;;;;;;1.15;0.47;;;;;;;17.48;31.07;100302.06;16117901;19;131237;-64
2024/01/15 09:55:32;;;;;;;1.73;0.60;;;;;;;17.49;31.32;100303.72;16117934;19;129545;-65
2024/01/15 10:00:55;;;;;;;1.75;0.40;;;;;;;17.49;31.12;100312.03;16119526;19;131196;-64
2024/01/15 10:06:17;;;;;;;1.17;0.40;;;;;;;17.49;31.41;100315.63;16119169;19;129485;-65
2024/01/15 10:11:44;;;;;;;1.92;0.47;;;;;;;17.48;31.42;100308.41;16119010;19;129370;-65
2024/01/15 10:17:17;;;;;;;2.10;0.70;;;;;;;17.50;31.37;100309.00;16113830;19;130312;-65
2024/01/15 10:22:42;;;;;;;1.77;0.60;;;;;;;17.49;31.28;100318.38;16117049;19;129923;-64
2024/01/15 10:28:04;;;;;;;1.63;0.50;;;;;;;17.50;31.24;100317.28;16112181;19;130085;-65
2024/01/15 10:33:27;;;;;;;2.47;0.70;;;;;;;17.50;31.04;100344.13;16116565;19;129479;-65
2024/01/15 10:38:49;;;;;;;3.00;0.60;;;;;;;17.45;30.72;100335.72;16116993;19;129976;-65
2024/01/15 10:44:11;;;;;;;2.13;0.75;;;;;;;17.40;30.92;100355.84;16115292;19;130248;-65
2024/01/15 10:49:33;;;;;;;1.00;0.55;;;;;;;17.36;30.75;100360.19;16114651;19;129494;-65
2024/01/15 10:54:55;;;;;;;1.92;0.68;;;;;;;17.30;30.79;100362.03;16111407;19;129293;-65
2024/01/15 11:00:18;;;;;;;3.50;0.75;;;;;;;17.27;30.65;100350.66;16113110;19;129820;-65
2024/01/15 11:05:43;;;;;;;1.83;0.55;;;;;;;17.25;30.74;100331.56;16114276;19;130742;-65
2024/01/15 11:11:05;;;;;;;2.10;0.97;;;;;;;17.22;30.63;100357.81;16108521;19;129572;-65
2024/01/15 11:16:56;;;;;;;2.92;0.80;;;;;;;17.23;30.64;100378.78;16114665;19;129574;-65
2024/01/15 11:22:30;;;;;;;2.30;0.68;;;;;;;17.19;30.39;100372.09;16112035;19;129320;-65
2024/01/15 11:27:52;;;;;;;2.58;0.80;;;;;;;17.16;30.23;100360.72;16111229;19;129848;-64
2024/01/15 11:33:34;;;;;;;1.90;0.70;;;;;;;17.15;30.19;100365.41;16107504;19;131516;-65
2024/01/15 11:38:57;;;;;;;2.63;0.70;;;;;;;17.12;30.40;100371.41;16112113;19;129760;-64
2024/01/15 11:44:20;;;;;;;2.33;0.68;;;;;;;17.10;30.33;100370.84;16109469;19;129781;-65
2024/01/15 11:50:06;;;;;;;2.35;0.57;;;;;;;17.09;30.25;100355.34;16111195;19;129394;-65
2024/01/15 11:55:36;;;;;;;0.97;0.50;;;;;;;17.05;30.12;100363.28;16106983;19;130343;-65
2024/01/15 12:00:58;;;;;;;1.00;0.60;;;;;;;17.04;30.28;100375.47;16113791;19;130119;-65
2024/01/15 12:06:20;;;;;;;1.65;0.60;;;;;;;17.04;30.26;100385.66;16106025;19;130907;-65
2024/01/15 12:11:50;;;;;;;1.83;0.85;;;;;;;17.05;30.42;100385.41;16123965;19;132985;-65
2024/01/15 12:17:12;;;;;;;2.60;0.60;;;;;;;17.03;30.07;100389.50;16120401;19;129668;-65
2024/01/15 12:22:34;;;;;;;0.82;0.50;;;;;;;17.03;30.22;100389.50;16123203;19;129920;-64
2024/01/15 12:28:16;;;;;;;2.65;0.77;;;;;;;17.03;30.19;100395.03;16123001;19;130200;-63
2024/01/15 12:33:38;;;;;;;1.42;0.52;;;;;;;17.02;30.37;100398.88;16125540;19;129537;-64
2024/01/15 12:39:00;;;;;;;1.88;0.80;;;;;;;16.98;29.88;100389.44;16122937;19;129644;-65
2024/01/15 12:44:22;;;;;;;0.75;0.50;;;;;;;16.97;30.21;100401.56;16121721;19;131301;-64
2024/01/15 12:49:53;;;;;;;1.25;0.60;;;;;;;16.95;29.84;100398.19;16123350;19;129561;-65
2024/01/15 12:55:25;;;;;;;1.00;0.50;;;;;;;16.95;30.24;100392.69;16121000;19;130877;-64
2024/01/15 13:00:47;;;;;;;0.80;0.43;;;;;;;16.94;30.01;100397.34;16123298;19;130927;-65
2024/01/15 13:06:09;;;;;;;1.67;0.60;;;;;;;17.00;30.16;100396.38;16116331;19;131370;-63
2024/01/15 13:11:32;;;;;;;1.23;0.50;;;;;;;17.12;30.50;100395.47;16119294;19;129665;-64
2024/01/15 13:16:55;;;;;;;1.00;0.40;;;;;;;17.26;30.09;100405.13;16120925;19;129375;-65
2024/01/15 13:22:17;;;;;;;1.10;0.47;;;;;;;17.40;30.39;100413.91;16117040;19;130934;-64
2024/01/15 13:27:39;;;;;;;1.30;0.40;;;;;;;17.51;29.83;100423.25;16120966;19;129276;-63
2024/01/15 13:33:04;;;;;;;0.63;0.38;;;;;;;17.57;30.04;100415.91;16118803;19;129438;-65
2024/01/15 13:38:27;;;;;;;1.08;0.50;;;;;;;17.61;29.75;100430.88;16119629;19;131637;-64
2024/01/15 13:43:50;;;;;;;0.80;0.30;;;;;;;17.63;29.67;100437.00;16118385;19;129842;-65
2024/01/15 13:49:12;;;;;;;1.10;0.30;;;;;;;17.64;29.93;100441.44;16117821;19;129613;-65
2024/01/15 13:54:34;;;;;;;0.80;0.30;;;;;;;17.61;30.05;100444.72;16115307;19;129637;-65
2024/01/15 14:00:11;;;;;;;0.70;0.30;;;;;;;17.57;29.88;100426.97;16114264;19;131039;-65
2024/01/15 14:05:34;;;;;;;0.68;0.30;;;;;;;17.53;29.69;100441.25;16116169;19;130107;-65
2024/01/15 14:10:57;;;;;;;0.82;0.32;;;;;;;17.49;29.76;100444.78;16112105;19;131125;-64
2024/01/15 14:16:19;;;;;;;0.82;0.40;;;;;;;17.46;30.03;100462.72;16115553;19;129471;-65
2024/01/15 14:21:46;;;;;;;1.00;0.30;;;;;;;17.41;29.96;100473.66;16116054;19;129394;-64
2024/01/15 14:27:09;;;;;;;1.15;0.43;;;;;;;17.39;29.94;100470.31;16112132;19;129329;-67
2024/01/15 14:32:30;;;;;;;1.17;0.40;;;;;;;17.36;29.53;100477.19;16112936;19;129442;-65
2024/01/15 14:37:52;;;;;;;1.08;0.45;;;;;;;17.36;29.66;100484.63;16115731;19;129991;-64
2024/01/15 14:43:15;;;;;;;1.58;0.40;;;;;;;17.34;29.34;100495.13;16117556;19;129687;-65
2024/01/15 14:48:37;;;;;;;0.80;0.35;;;;;;;17.30;29.73;100508.56;16114109;19;129229;-64
2024/01/15 14:53:59;;;;;;;1.33;0.35;;;;;;;17.30;29.56;100533.47;16115106;19;131108;-65
2024/01/15 14:59:21;;;;;;;0.50;0.30;;;;;;;17.28;29.76;100529.28;16113578;19;131043;-65
2024/01/15 15:04:42;;;;;;;0.47;0.35;;;;;;;17.26;29.88;100546.13;16112642;19;130768;-65
2024/01/15 15:10:11;;;;;;;0.93;0.32;;;;;;;17.23;29.49;100530.84;16110235;19;130580;-65
2024/01/15 15:15:34;;;;;;;0.25;0.20;;;;;;;17.20;29.74;100545.19;16112429;19;132936;-64
2024/01/15 15:20:56;;;;;;;0.77;0.38;;;;;;;17.18;29.88;100528.00;16112330;19;129658;-65
2024/01/15 15:26:20;;;;;;;0.65;0.30;;;;;;;17.15;30.01;100528.47;16104269;19;129391;-64
2024/01/15 15:31:43;;;;;;;0.93;0.30;;;;;;;17.13;29.82;100538.94;16104835;19;133177;-65
2024/01/15 15:37:05;;;;;;;0.43;0.30;;;;;;;17.11;30.23;100540.28;16107489;19;129720;-64
2024/01/15 15:42:28;;;;;;;0.50;0.30;;;;;;;17.07;29.90;100554.56;16110945;19;130553;-64
2024/01/15 15:47:50;;;;;;;0.65;0.30;;;;;;;17.06;30.20;100554.84;16128890;19;130091;-65
2024/01/15 15:53:12;;;;;;;0.75;0.22;;;;;;;17.04;29.96;100562.53;16123049;19;129280;-65
2024/01/15 15:58:34;;;;;;;0.30;0.28;;;;;;;17.13;30.12;100582.34;16123326;19;129322;-65
2024/01/15 16:03:55;;;;;;;0.65;0.40;;;;;;;17.34;30.38;100583.59;16121611;19;129981;-64
2024/01/15 16:09:17;;;;;;;0.82;0.28;;;;;;;17.63;30.12;100591.91;16122535;19;129534;-65
2024/01/15 16:14:39;;;;;;;0.60;0.20;;;;;;;18.04;29.87;100592.66;16126326;19;130004;-66
2024/01/15 16:20:01;;;;;;;1.00;0.30;;;;;;;18.48;29.44;100605.88;16125633;19;129516;-64
2024/01/15 16:25:43;;;;;;;0.70;0.30;;;;;;;18.94;29.21;100621.47;16119985;19;131672;-64
2024/01/15 16:31:06;;;;;;;0.20;0.20;;;;;;;19.18;28.99;100633.19;16120510;19;129448;-64
2024/01/15 16:36:29;;;;;;;0.77;0.30;;;;;;;19.34;28.32;100632.28;16122729;19;129192;-64
2024/01/15 16:41:51;;;;;;;0.45;0.20;;;;;;;19.37;28.60;100637.34;16124721;19;130068;-65
2024/01/15 16:47:13;;;;;;;1.02;0.40;;;;;;;19.33;28.39;100636.16;16124343;19;129676;-65
2024/01/15 16:52:35;;;;;;;0.80;0.30;;;;;;;19.29;28.56;100640.56;16110151;19;129692;-65
2024/01/15 16:57:57;;;;;;;0.70;0.30;;;;;;;19.20;28.25;100642.09;16104667;19;131262;-65
2024/01/15 17:03:19;;;;;;;2.30;0.55;;;;;;;19.14;28.48;100638.38;16114772;19;130827;-66
2024/01/15 17:08:41;;;;;;;2.20;0.30;;;;;;;19.15;28.34;100644.78;16120259;19;131688;-65
2024/01/15 17:14:03;;;;;;;3.78;0.57;;;;;;;19.27;28.35;100659.41;16114697;19;130760;-66
2024/01/15 17:19:27;;;;;;;1.17;0.90;;;;;;;19.51;28.10;100662.75;16112988;19;130295;-66
2024/01/15 17:24:49;;;;;;;9.35;2.20;;;;;;;19.86;27.60;100677.28;16111925;19;129199;-66
2024/01/15 17:30:11;;;;;;;8.18;3.00;;;;;;;20.21;27.39;100678.78;16110343;19;130528;-67
2024/01/15 17:35:33;;;;;;;8.43;3.63;;;;;;;20.48;27.61;100677.09;16108411;19;133331;-66
2024/01/15 17:40:57;;;;;;;16.25;4.13;;;;;;;20.76;27.10;100695.41;16117443;19;129685;-65
2024/01/15 17:46:19;;;;;;;12.00;3.60;;;;;;;20.90;26.87;100696.63;16114005;19;131706;-64
2024/01/15 17:51:41;;;;;;;16.20;3.97;;;;;;;20.97;27.12;100706.66;16117972;19;129286;-65
2024/01/15 17:57:03;;;;;;;9.82;3.92;;;;;;;20.98;27.23;100717.53;16120719;19;130987;-65
2024/01/15 18:02:25;;;;;;;14.13;3.90;;;;;;;20.89;26.85;100711.63;16114717;19;129551;-68
2024/01/15 18:07:48;;;;;;;9.95;3.33;;;;;;;20.79;27.02;100719.91;16110659;19;131547;-65
2024/01/15 18:13:10;;;;;;;13.32;4.50;;;;;;;20.67;27.53;100719.22;16116668;19;129855;-65
2024/01/15 18:18:32;;;;;;;13.25;4.20;;;;;;;20.56;27.65;100721.06;16114276;19;130723;-66
2024/01/15 18:23:54;;;;;;;8.55;3.53;;;;;;;20.58;27.56;100708.56;16111982;19;130178;-66
2024/01/15 18:29:18;;;;;;;9.23;3.22;;;;;;;20.78;27.18;100721.00;16115337;19;129724;-66
2024/01/15 18:34:42;;;;;;;7.32;3.15;;;;;;;21.13;27.19;100739.06;16110005;19;129611;-66
2024/01/15 18:40:06;;;;;;;8.65;3.25;;;;;;;21.48;26.90;100748.72;16114529;19;129378;-66
2024/01/15 18:45:28;;;;;;;6.18;2.40;;;;;;;21.63;26.64;100761.06;16111127;19;131537;-66
2024/01/15 18:50:51;;;;;;;14.15;3.25;;;;;;;21.45;26.10;100760.38;16099138;19;129829;-64
2024/01/15 18:56:13;;;;;;;12.80;2.50;;;;;;;21.27;26.11;100771.97;16106755;19;130795;-63
2024/01/15 19:01:36;;;;;;;11.55;2.92;;;;;;;21.15;25.79;100774.94;16110384;19;130423;-62
2024/01/15 19:06:58;;;;;;;11.32;2.75;;;;;;;21.00;26.19;100789.56;16104658;19;129856;-63
2024/01/15 19:12:20;;;;;;;9.32;2.60;;;;;;;20.94;26.53;100782.28;16103910;19;130706;-63
2024/01/15 19:17:44;;;;;;;12.55;2.47;;;;;;;21.04;26.13;100794.34;16101908;19;130105;-63
2024/01/15 19:23:08;;;;;;;7.50;2.70;;;;;;;21.28;26.53;100791.16;16092888;19;131657;-63
2024/01/15 19:28:30;;;;;;;13.00;2.30;;;;;;;21.56;26.17;100782.72;16101284;19;130053;-67
2024/01/15 19:33:52;;;;;;;8.98;2.35;;;;;;;21.75;26.23;100791.47;16108435;19;132324;-66
2024/01/15 19:39:14;;;;;;;8.55;2.00;;;;;;;21.78;26.18;100788.13;16106052;19;130443;-71
2024/01/15 19:44:35;;;;;;;9.25;2.20;;;;;;;21.61;26.62;100793.91;16088037;19;131459;-66
2024/01/15 19:49:57;;;;;;;17.50;2.53;;;;;;;21.38;26.97;100798.75;16107895;19;129567;-68
2024/01/15 19:55:19;;;;;;;10.35;2.15;;;;;;;21.27;26.81;100814.53;16106237;19;131243;-63
2024/01/15 20:00:41;;;;;;;5.68;1.85;;;;;;;21.17;27.28;100815.28;16101241;19;132045;-63
2024/01/15 20:06:08;;;;;;;7.68;1.67;;;;;;;21.02;27.40;100820.75;16101816;19;130171;-65
2024/01/15 20:11:31;;;;;;;12.38;2.47;;;;;;;20.92;27.51;100823.44;16099144;19;129887;-64
2024/01/15 20:16:53;;;;;;;22.98;2.30;;;;;;;20.97;27.66;100860.47;16104868;19;132389;-64
2024/01/15 20:22:14;;;;;;;9.45;2.05;;;;;;;21.14;27.47;100854.78;16100972;19;132052;-64
2024/01/15 20:27:36;;;;;;;26.58;2.97;;;;;;;21.43;27.40;100857.22;16104845;19;129119;-63
2024/01/15 20:32:59;;;;;;;9.30;1.33;;;;;;;21.74;27.57;100849.09;16113723;19;130606;-62
2024/01/15 20:38:22;;;;;;;19.92;2.03;;;;;;;22.06;26.90;100861.25;16117747;19;131344;-66
2024/01/15 20:43:44;;;;;;;21.38;2.33;;;;;;;22.31;27.19;100857.75;16117302;19;130644;-64
2024/01/15 20:49:06;;;;;;;8.88;1.30;;;;;;;22.54;26.82;100850.00;16121802;19;131834;-62
2024/01/15 20:54:28;;;;;;;22.70;1.85;;;;;;;22.70;26.79;100854.50;16121621;19;129930;-64
2024/01/15 20:59:50;;;;;;;20.88;1.75;;;;;;;22.88;26.64;100861.50;16116995;19;130635;-63
2024/01/15 21:05:12;;;;;;;15.25;1.50;;;;;;;23.02;26.53;100870.19;16116913;19;129615;-63
2024/01/15 21:10:35;;;;;;;11.55;1.70;;;;;;;23.05;26.57;100872.44;16117908;19;130416;-64
2024/01/15 21:15:56;;;;;;;15.73;1.73;;;;;;;22.98;26.74;100873.81;16114595;19;130783;-64
2024/01/15 21:21:18;;;;;;;17.27;2.00;;;;;;;22.81;26.88;100868.47;16110190;19;132372;-65
2024/01/15 21:26:40;;;;;;;21.92;2.00;;;;;;;22.59;27.02;100869.53;16116990;19;131232;-66
2024/01/15 21:32:04;;;;;;;12.90;1.42;;;;;;;22.37;26.95;100855.81;16116961;19;134940;-65
2024/01/15 21:37:27;;;;;;;11.90;1.70;;;;;;;22.15;27.01;100864.34;16114107;19;130155;-66
2024/01/15 21:42:49;;;;;;;6.43;1.33;;;;;;;21.91;27.12;100854.50;16121317;19;129997;-66
2024/01/15 21:48:11;;;;;;;7.97;1.88;;;;;;;21.71;27.22;100869.13;16119418;19;131114;-66
2024/01/15 21:53:33;;;;;;;13.23;2.00;;;;;;;21.49;27.55;100889.59;16115562;19;129599;-65
2024/01/15 21:58:55;;;;;;;8.40;1.25;;;;;;;21.30;27.72;100888.28;16116288;19;129124;-66
2024/01/15 22:04:20;;;;;;;7.30;1.63;;;;;;;21.12;27.94;100920.97;16116543;19;129465;-66
2024/01/15 22:09:42;;;;;;;5.18;1.20;;;;;;;20.95;27.71;100911.88;16119774;19;130441;-65
2024/01/15 22:15:05;;;;;;;4.95;1.25;;;;;;;20.82;27.87;100893.69;16117201;19;129410;-65
2024/01/15 22:20:26;;;;;;;8.57;1.40;;;;;;;20.72;28.21;100891.59;16110193;19;129746;-65
2024/01/15 22:25:48;;;;;;;7.47;1.50;;;;;;;20.56;27.99;100901.72;16115126;19;130358;-66
2024/01/15 22:31:10;;;;;;;8.38;1.40;;;;;;;20.42;28.40;100907.66;16116419;19;130470;-66
2024/01/15 22:36:32;;;;;;;3.88;1.10;;;;;;;20.29;28.14;100914.47;16112351;19;131436;-66
2024/01/15 22:41:54;;;;;;;5.47;1.30;;;;;;;20.18;28.55;100918.22;16115693;19;129772;-65
2024/01/15 22:47:16;;;;;;;5.05;1.10;;;;;;;20.05;28.38;100913.03;16108937;19;129949;-66
2024/01/15 22:52:38;;;;;;;6.82;1.27;;;;;;;19.88;28.85;100905.53;16112940;19;131828;-66
2024/01/15 22:58:00;;;;;;;4.25;1.05;;;;;;;19.79;28.69;100915.41;16108052;19;129542;-66
2024/01/15 23:03:22;;;;;;;5.05;1.15;;;;;;;19.66;28.91;100919.34;16115179;19;133329;-66
2024/01/15 23:08:45;;;;;;;2.90;0.95;;;;;;;19.53;29.37;100934.41;16111048;19;130371;-65
2024/01/15 23:14:07;;;;;;;3.53;0.77;;;;;;;19.41;29.04;100928.94;16113998;19;130384;-66
2024/01/15 23:19:29;;;;;;;3.78;1.10;;;;;;;19.31;29.30;100932.41;16110103;19;130587;-65
2024/01/15 23:24:51;;;;;;;5.65;0.90;;;;;;;19.22;29.45;100942.19;16110744;19;129494;-65
2024/01/15 23:42:30;;;;;;;3.95;1.00;;;;;;;18.94;30.02;100963.31;16105605;19;130281;-66
2024/01/15 23:47:52;;;;;;;2.22;0.70;;;;;;;18.88;30.02;100967.91;16106946;19;131151;-66
2024/01/15 23:53:14;;;;;;;2.60;0.80;;;;;;;18.84;29.83;100969.47;16108699;19;130693;-66
2024/01/15 23:58:36;;;;;;;1.75;0.68;;;;;;;18.80;29.78;100967.47;16107247;19;131201;-66
